Time;durP1;ratioP1;P1;durP2;ratioP2;P2;SDS_P1;SDS_P2;PMS_P1;PMS_P2;Temp;Humidity;BMP_temperature;BMP_pressure;BME280_temperature;BME280_humidity;BME280_pressure;Samples;Min_cycle;Max_cycle;Signal;HPM_P1;HPM_P2
2021/05/11 00:00:36;;;;;;;2.90;2.70;;;16.80;99.90;;;;;;5030270;28;20641;-73
2021/05/11 00:03:03;;;;;;;3.33;2.70;;;16.70;99.90;;;;;;5030768;28;20429;-72
2021/05/11 00:05:30;;;;;;;3.57;2.67;;;16.70;99.90;;;;;;5031480;28;20430;-73
2021/05/11 00:07:58;;;;;;;2.60;2.40;;;16.70;99.90;;;;;;5032362;28;20420;-72
2021/05/11 00:10:27;;;;;;;3.73;2.80;;;16.70;99.90;;;;;;5025467;28;20491;-72
2021/05/11 00:12:55;;;;;;;2.73;2.63;;;16.70;99.90;;;;;;5024160;28;20465;-72
2021/05/11 00:15:22;;;;;;;5.03;2.50;;;16.80;99.90;;;;;;5031492;28;20429;-73
2021/05/11 00:17:48;;;;;;;2.90;2.70;;;16.70;99.90;;;;;;5031253;28;20442;-72
2021/05/11 00:20:16;;;;;;;3.23;2.60;;;16.70;99.90;;;;;;5027363;28;20469;-73
2021/05/11 00:22:42;;;;;;;2.87;2.67;;;16.70;99.90;;;;;;5030416;28;20417;-73
2021/05/11 00:25:08;;;;;;;2.83;2.63;;;16.70;99.90;;;;;;5031107;28;20420;-72
2021/05/11 00:27:37;;;;;;;3.50;2.80;;;16.70;99.90;;;;;;5031868;28;20980;-73
2021/05/11 00:30:04;;;;;;;3.27;2.97;;;16.60;99.90;;;;;;5030729;28;20453;-73
2021/05/11 00:32:30;;;;;;;3.73;2.73;;;16.60;99.90;;;;;;5032142;28;20772;-72
2021/05/11 00:34:56;;;;;;;2.60;2.40;;;16.60;99.90;;;;;;5032335;28;20494;-72
2021/05/11 00:37:22;;;;;;;2.90;2.57;;;16.50;99.90;;;;;;5037412;28;20489;-73
2021/05/11 00:39:48;;;;;;;2.80;2.60;;;16.50;99.90;;;;;;5022920;28;22259;-72
2021/05/11 00:42:14;;;;;;;2.87;2.30;;;16.50;99.90;;;;;;5031150;28;20470;-72
2021/05/11 00:44:40;;;;;;;2.90;2.23;;;16.50;99.90;;;;;;5031004;28;20965;-72
2021/05/11 00:47:07;;;;;;;2.43;2.23;;;16.40;99.90;;;;;;5029576;28;20544;-73
2021/05/11 00:49:34;;;;;;;4.37;2.30;;;16.40;99.90;;;;;;5023070;28;20469;-73
2021/05/11 00:52:05;;;;;;;2.53;2.23;;;16.30;99.90;;;;;;5044434;28;20432;-73
2021/05/11 00:54:32;;;;;;;2.60;2.40;;;16.30;99.90;;;;;;5030605;28;20526;-72
2021/05/11 00:57:03;;;;;;;2.93;2.40;;;16.20;99.90;;;;;;5028245;28;20432;-73
2021/05/11 00:59:30;;;;;;;4.53;2.37;;;16.20;99.90;;;;;;5030174;28;20455;-73
2021/05/11 01:01:58;;;;;;;3.00;2.43;;;16.10;99.90;;;;;;5020870;28;20493;-73
2021/05/11 01:04:27;;;;;;;5.00;2.50;;;16.10;99.90;;;;;;5027395;28;20936;-72
2021/05/11 01:06:54;;;;;;;2.87;2.30;;;16.00;99.90;;;;;;5029754;28;21619;-73
2021/05/11 01:09:24;;;;;;;2.80;1.90;;;16.00;99.90;;;;;;5030268;28;20451;-73
2021/05/11 01:11:53;;;;;;;2.63;1.90;;;16.00;99.90;;;;;;5029570;28;20435;-74
2021/05/11 01:14:20;;;;;;;3.27;2.17;;;15.90;99.90;;;;;;5027932;28;20447;-74
2021/05/11 01:16:52;;;;;;;3.17;2.63;;;15.80;99.90;;;;;;5030584;28;20869;-73
2021/05/11 01:19:46;;;;;;;7.03;2.60;;;15.80;99.90;;;;;;5040044;28;20539;-73
2021/05/11 01:24:49;;;;;;;4.07;2.50;;;15.70;99.90;;;;;;5030680;28;20446;-74
2021/05/11 01:49:15;;;;;;;4.73;4.30;;;15.60;99.90;;;;;;5029228;28;20465;-73
2021/05/11 02:24:50;;;;;;;5.63;5.00;;;15.60;99.90;;;;;;5029371;28;20530;-74
2021/05/11 02:27:16;;;;;;;5.23;4.70;;;15.60;99.90;;;;;;5028838;28;20482;-74
2021/05/11 02:29:42;;;;;;;4.90;4.40;;;15.60;99.90;;;;;;5026551;28;20444;-74
2021/05/11 02:32:08;;;;;;;5.50;5.00;;;15.60;99.90;;;;;;5011541;28;21021;-74
2021/05/11 02:34:34;;;;;;;8.83;5.87;;;15.60;99.90;;;;;;5027707;28;20952;-74
2021/05/11 02:37:00;;;;;;;6.17;5.37;;;15.60;99.90;;;;;;5028060;28;20471;-74
2021/05/11 02:39:26;;;;;;;5.47;4.97;;;15.60;99.90;;;;;;5026119;28;21041;-74
2021/05/11 02:41:52;;;;;;;10.63;6.40;;;15.60;99.90;;;;;;5027574;28;20449;-74
2021/05/11 02:44:20;;;;;;;8.40;5.67;;;15.70;99.90;;;;;;5027800;28;20524;-74
2021/05/11 02:46:47;;;;;;;6.77;6.17;;;15.60;99.90;;;;;;5027697;28;20845;-74
2021/05/11 02:49:13;;;;;;;8.10;7.30;;;15.60;99.90;;;;;;5028372;28;20861;-74
2021/05/11 02:51:42;;;;;;;7.30;6.33;;;15.60;99.90;;;;;;5027513;28;20471;-74
2021/05/11 02:54:08;;;;;;;8.00;7.20;;;15.50;99.90;;;;;;5027326;28;20446;-74
2021/05/11 02:56:34;;;;;;;7.87;7.10;;;15.50;99.90;;;;;;5025375;28;20436;-74
2021/05/11 02:59:02;;;;;;;8.87;7.47;;;15.50;99.90;;;;;;5012360;28;20462;-74
2021/05/11 03:01:28;;;;;;;7.50;6.80;;;15.50;99.90;;;;;;5027569;28;20802;-74
2021/05/11 03:03:54;;;;;;;8.20;7.40;;;15.50;99.90;;;;;;5032596;28;20464;-74
2021/05/11 03:06:20;;;;;;;7.97;7.17;;;15.50;99.90;;;;;;5030558;28;20462;-74
2021/05/11 03:08:46;;;;;;;7.40;6.67;;;15.50;99.90;;;;;;5031172;28;20966;-74
2021/05/11 03:11:14;;;;;;;9.00;8.13;;;15.50;99.90;;;;;;5030515;28;20427;-74
2021/05/11 03:13:40;;;;;;;8.90;8.00;;;15.50;99.90;;;;;;5033185;28;21067;-74
2021/05/11 03:16:08;;;;;;;8.83;8.03;;;15.50;99.90;;;;;;5031670;28;20507;-74
2021/05/11 03:18:37;;;;;;;9.33;8.30;;;15.40;99.90;;;;;;5031976;28;20453;-74
2021/05/11 03:21:03;;;;;;;9.87;8.87;;;15.40;99.90;;;;;;5031089;28;20464;-74
2021/05/11 03:23:29;;;;;;;9.47;8.57;;;15.40;99.90;;;;;;5030768;28;20436;-74
2021/05/11 03:25:57;;;;;;;15.27;8.90;;;15.40;99.90;;;;;;5031674;28;20490;-74
2021/05/11 03:28:23;;;;;;;9.40;8.37;;;15.40;99.90;;;;;;5032691;28;20927;-74
2021/05/11 03:30:49;;;;;;;10.40;8.60;;;15.40;99.90;;;;;;5032324;28;20451;-74
2021/05/11 03:33:15;;;;;;;10.30;8.67;;;15.40;99.90;;;;;;5030471;28;20450;-74
2021/05/11 03:35:41;;;;;;;10.33;9.40;;;15.40;99.90;;;;;;5029322;28;20435;-74
2021/05/11 03:38:12;;;;;;;14.70;9.73;;;15.40;99.90;;;;;;5025979;28;20420;-74
2021/05/11 03:40:38;;;;;;;10.93;9.77;;;15.40;99.90;;;;;;5031437;28;20835;-74
2021/05/11 03:43:08;;;;;;;16.57;10.40;;;15.40;99.90;;;;;;5012853;28;20430;-74
2021/05/11 03:45:42;;;;;;;11.70;9.60;;;15.30;99.90;;;;;;5013896;28;20442;-74
2021/05/11 03:48:08;;;;;;;11.63;10.43;;;15.30;99.90;;;;;;5032265;28;20431;-74
2021/05/11 03:50:34;;;;;;;11.83;9.67;;;15.40;99.90;;;;;;5027406;28;20492;-74
2021/05/11 03:53:01;;;;;;;12.37;11.17;;;15.40;99.90;;;;;;5022110;28;20426;-74
2021/05/11 03:55:30;;;;;;;11.60;10.40;;;15.40;99.90;;;;;;5030358;28;20492;-74
2021/05/11 03:57:56;;;;;;;12.73;10.93;;;15.40;99.90;;;;;;5031752;28;20483;-74
2021/05/11 04:00:22;;;;;;;12.00;10.43;;;15.40;99.90;;;;;;5029849;28;20449;-74
2021/05/11 04:02:48;;;;;;;13.00;11.03;;;15.40;99.90;;;;;;5030897;28;20448;-74
2021/05/11 04:05:19;;;;;;;12.40;11.20;;;15.40;99.90;;;;;;5030323;28;20519;-74
2021/05/11 04:07:48;;;;;;;11.73;10.63;;;15.40;99.90;;;;;;5028451;28;20475;-74
2021/05/11 04:10:23;;;;;;;11.90;10.70;;;15.40;99.90;;;;;;5009227;28;20450;-74
2021/05/11 04:13:41;;;;;;;13.97;11.20;;;15.40;99.90;;;;;;5029314;28;20436;-74
2021/05/11 04:18:23;;;;;;;11.43;10.30;;;15.40;99.90;;;;;;5029123;28;20493;-74
2021/05/11 04:20:49;;;;;;;10.17;9.03;;;15.40;99.90;;;;;;5026925;28;20469;-74
2021/05/11 04:23:17;;;;;;;9.93;8.93;;;15.40;99.90;;;;;;5030286;28;20835;-73
2021/05/11 04:25:46;;;;;;;10.57;8.83;;;15.40;99.90;;;;;;5039662;28;21029;-74
2021/05/11 04:28:12;;;;;;;8.40;7.60;;;15.40;99.90;;;;;;5028199;28;20466;-75
2021/05/11 04:30:38;;;;;;;9.37;7.67;;;15.40;99.90;;;;;;5021882;28;20569;-74
2021/05/11 04:33:04;;;;;;;8.93;7.40;;;15.40;99.90;;;;;;5029315;28;20532;-74
2021/05/11 04:35:30;;;;;;;7.87;6.13;;;15.30;99.90;;;;;;5031586;28;21010;-74
2021/05/11 04:37:56;;;;;;;7.77;6.10;;;15.30;99.90;;;;;;5016333;28;20438;-74
2021/05/11 04:40:25;;;;;;;10.33;6.20;;;15.30;99.90;;;;;;5013883;28;20503;-73
2021/05/11 04:42:54;;;;;;;10.20;6.43;;;15.30;99.90;;;;;;5031959;28;20792;-74
2021/05/11 04:45:25;;;;;;;8.27;6.37;;;15.30;99.90;;;;;;5021322;28;20442;-75
2021/05/11 04:47:55;;;;;;;8.70;5.93;;;15.30;99.90;;;;;;5006440;28;20450;-74
2021/05/11 04:50:24;;;;;;;7.20;5.60;;;15.30;99.90;;;;;;5027775;28;20444;-74
2021/05/11 04:52:52;;;;;;;7.30;5.57;;;15.30;99.90;;;;;;5022246;28;20433;-74
2021/05/11 04:55:21;;;;;;;7.60;5.60;;;15.30;99.90;;;;;;5028270;28;20420;-74
2021/05/11 04:57:48;;;;;;;9.37;6.30;;;15.30;99.90;;;;;;5037784;28;20439;-74
2021/05/11 05:00:18;;;;;;;6.73;6.13;;;15.30;99.90;;;;;;5021356;28;20451;-74
2021/05/11 05:02:46;;;;;;;8.50;6.80;;;15.30;99.90;;;;;;5029349;28;21005;-74
2021/05/11 05:05:16;;;;;;;7.03;5.77;;;15.30;99.90;;;;;;5038313;28;20451;-74
2021/05/11 05:07:42;;;;;;;10.63;6.60;;;15.30;99.90;;;;;;5026960;28;20863;-74
2021/05/11 05:10:12;;;;;;;7.90;6.00;;;15.30;99.90;;;;;;5026554;28;20452;-74
2021/05/11 05:12:39;;;;;;;12.40;7.47;;;15.30;99.90;;;;;;5030381;28;20426;-74
2021/05/11 05:15:08;;;;;;;7.93;6.37;;;15.40;99.90;;;;;;5014147;28;20524;-74
2021/05/11 05:17:34;;;;;;;8.20;6.27;;;15.30;99.90;;;;;;5043358;28;20427;-74
2021/05/11 05:20:02;;;;;;;10.10;6.77;;;15.40;99.90;;;;;;5029118;28;20458;-74
2021/05/11 05:22:29;;;;;;;7.67;6.87;;;15.40;99.90;;;;;;5001128;28;20946;-74
2021/05/11 05:24:58;;;;;;;8.03;6.97;;;15.50;99.90;;;;;;5032627;28;20422;-74
2021/05/11 05:27:37;;;;;;;8.93;7.00;;;15.50;99.90;;;;;;5020108;28;20468;-75
2021/05/11 05:30:05;;;;;;;7.97;6.67;;;15.50;99.90;;;;;;5036470;28;20482;-74
2021/05/11 05:32:34;;;;;;;7.17;5.67;;;15.60;99.90;;;;;;5005963;28;20943;-74
2021/05/11 05:35:00;;;;;;;8.10;5.50;;;15.60;99.90;;;;;;5016045;28;20994;-75
2021/05/11 05:37:26;;;;;;;6.93;5.00;;;15.60;99.90;;;;;;5028985;28;20442;-74
2021/05/11 05:39:56;;;;;;;6.93;5.40;;;15.50;99.90;;;;;;5007175;28;20459;-74
2021/05/11 05:42:23;;;;;;;8.17;4.57;;;15.50;99.90;;;;;;5029413;28;20799;-74
2021/05/11 05:45:07;;;;;;;7.10;6.10;;;15.60;99.90;;;;;;5012837;28;20488;-74
2021/05/11 05:47:33;;;;;;;8.80;5.50;;;15.60;99.90;;;;;;5028732;28;20466;-75
2021/05/11 05:50:04;;;;;;;10.17;5.80;;;15.50;99.90;;;;;;5040922;28;20884;-74
2021/05/11 05:52:40;;;;;;;9.20;5.27;;;15.60;99.90;;;;;;5038565;28;20438;-74
2021/05/11 05:55:09;;;;;;;6.80;5.70;;;15.60;99.90;;;;;;5035552;28;20437;-73
2021/05/11 05:57:36;;;;;;;7.50;6.63;;;15.70;99.90;;;;;;5022046;28;20434;-73
2021/05/11 06:00:08;;;;;;;6.80;5.50;;;15.70;99.90;;;;;;5023591;28;20965;-74
2021/05/11 06:02:44;;;;;;;9.93;6.23;;;15.70;99.90;;;;;;5044126;28;20439;-74
2021/05/11 06:05:15;;;;;;;17.80;6.83;;;15.90;99.90;;;;;;5026036;28;20431;-74
2021/05/11 06:07:45;;;;;;;16.37;7.43;;;15.90;99.90;;;;;;5009975;28;20477;-73
2021/05/11 06:10:12;;;;;;;11.03;6.73;;;15.80;99.90;;;;;;5033424;28;20454;-73
2021/05/11 06:17:38;;;;;;;8.77;5.53;;;15.80;99.90;;;;;;5024634;28;20437;-73
2021/05/11 06:20:10;;;;;;;7.03;5.60;;;15.70;99.90;;;;;;5023914;28;20461;-73
2021/05/11 06:22:36;;;;;;;6.67;5.50;;;15.70;99.90;;;;;;5039265;28;20427;-74
2021/05/11 06:25:02;;;;;;;7.80;5.90;;;15.80;99.90;;;;;;5022054;28;20475;-73
2021/05/11 06:27:35;;;;;;;7.27;5.07;;;15.80;99.90;;;;;;5013355;28;21021;-73
2021/05/11 06:30:01;;;;;;;6.40;5.70;;;15.90;99.90;;;;;;5030587;28;20448;-74
2021/05/11 06:32:28;;;;;;;10.80;5.40;;;16.00;99.90;;;;;;5016321;28;20435;-78
2021/05/11 06:34:58;;;;;;;5.83;4.53;;;16.00;99.90;;;;;;5030205;28;20442;-73
2021/05/11 06:37:28;;;;;;;8.50;6.20;;;16.10;99.90;;;;;;5018647;28;20830;-74
2021/05/11 06:39:57;;;;;;;12.10;7.30;;;16.10;99.90;;;;;;5028327;28;20489;-73
2021/05/11 06:42:23;;;;;;;9.67;6.80;;;16.20;99.90;;;;;;5023585;28;20462;-74
2021/05/11 06:50:38;;;;;;;9.53;6.70;;;16.30;99.90;;;;;;5043347;28;20503;-73
2021/05/11 06:53:10;;;;;;;6.90;6.00;;;16.30;99.90;;;;;;4992784;28;20577;-73
2021/05/11 06:55:40;;;;;;;7.80;6.23;;;16.30;99.90;;;;;;5042877;28;20429;-73
2021/05/11 06:58:08;;;;;;;8.00;6.30;;;16.30;99.90;;;;;;5043753;28;20427;-74
2021/05/11 07:00:43;;;;;;;10.17;6.63;;;16.40;99.90;;;;;;5017015;28;20518;-74
2021/05/11 07:03:09;;;;;;;8.10;5.63;;;16.40;99.90;;;;;;5045922;28;20417;-74
2021/05/11 07:05:36;;;;;;;8.27;6.50;;;16.40;99.90;;;;;;5017078;28;20452;-74
2021/05/11 07:08:15;;;;;;;7.57;6.23;;;16.40;99.90;;;;;;5034748;28;20960;-74
2021/05/11 07:10:46;;;;;;;10.40;5.70;;;16.40;99.90;;;;;;5039892;28;20435;-74
2021/05/11 07:13:13;;;;;;;9.87;6.40;;;16.40;99.90;;;;;;5035154;28;20436;-74
2021/05/11 07:15:44;;;;;;;9.97;6.50;;;16.40;99.90;;;;;;5036594;28;20424;-74
2021/05/11 07:18:18;;;;;;;8.07;6.80;;;16.40;99.90;;;;;;5007405;28;20426;-74
2021/05/11 07:20:46;;;;;;;10.83;7.80;;;16.40;99.90;;;;;;4999433;28;20809;-73
2021/05/11 07:23:22;;;;;;;9.00;7.57;;;16.50;99.90;;;;;;5015932;28;20920;-74
2021/05/11 07:31:06;;;;;;;9.10;6.37;;;16.70;99.90;;;;;;5032113;28;20421;-74
2021/05/11 07:33:48;;;;;;;7.10;5.60;;;16.80;99.90;;;;;;5027355;28;20858;-74
2021/05/11 07:36:15;;;;;;;7.57;6.00;;;16.90;99.90;;;;;;5034540;28;20433;-73
2021/05/11 07:38:42;;;;;;;10.77;5.93;;;16.90;99.90;;;;;;5032531;28;21025;-74
2021/05/11 07:41:09;;;;;;;6.13;5.53;;;16.90;99.90;;;;;;5027302;28;20424;-75
2021/05/11 07:43:40;;;;;;;9.33;5.33;;;16.90;99.90;;;;;;5033149;28;20703;-74
2021/05/11 08:05:13;;;;;;;8.17;4.80;;;17.50;99.90;;;;;;5025260;28;21672;-75
2021/05/11 08:15:59;;;;;;;4.10;3.37;;;17.50;99.90;;;;;;5033987;28;20930;-75
2021/05/11 08:27:29;;;;;;;8.13;4.83;;;17.80;99.90;;;;;;5033892;28;20439;-75
2021/05/11 08:29:11;;;;;;;5.93;4.20;;;17.90;99.90;;;;;;5033840;28;20442;-81
2021/05/11 08:31:37;;;;;;;10.93;5.87;;;18.00;99.90;;;;;;5025033;28;20550;-75
2021/05/11 08:34:05;;;;;;;7.43;4.37;;;18.10;99.90;;;;;;5032534;28;20442;-75
2021/05/11 08:36:31;;;;;;;10.60;5.57;;;18.10;99.90;;;;;;5031397;28;20438;-75
2021/05/11 08:38:59;;;;;;;7.57;4.00;;;18.10;99.90;;;;;;5032555;28;20828;-75
2021/05/11 08:41:29;;;;;;;5.93;4.20;;;18.00;99.90;;;;;;5030502;28;20424;-75
2021/05/11 08:43:57;;;;;;;6.30;4.23;;;17.90;99.90;;;;;;5031479;28;20457;-75
2021/05/11 08:46:23;;;;;;;5.70;4.70;;;18.00;99.90;;;;;;5035380;28;20879;-74
2021/05/11 08:48:51;;;;;;;6.07;4.17;;;18.10;99.90;;;;;;5030986;28;20453;-75
2021/05/11 08:51:25;;;;;;;7.80;5.27;;;18.20;99.90;;;;;;5029884;28;20458;-75
2021/05/11 09:27:22;;;;;;;6.43;5.83;;;18.70;99.90;;;;;;5021316;28;20858;-74
2021/05/11 09:30:14;;;;;;;6.07;5.50;;;18.70;99.90;;;;;;5023197;28;20478;-74
2021/05/11 09:33:12;;;;;;;6.37;5.77;;;18.80;99.90;;;;;;5040687;28;20445;-74
2021/05/11 10:49:26;;;;;;;6.57;5.83;;;18.70;99.90;;;;;;5010372;28;20451;-75
2021/05/11 10:52:23;;;;;;;6.80;5.23;;;18.60;99.90;;;;;;5007908;28;21044;-77
2021/05/11 10:54:57;;;;;;;7.63;6.13;;;18.50;99.90;;;;;;5008687;28;20522;-77
2021/05/11 10:57:28;;;;;;;5.80;5.23;;;18.40;99.90;;;;;;5008700;28;20476;-77
2021/05/11 11:00:15;;;;;;;5.77;5.27;;;18.30;99.90;;;;;;5008084;28;20450;-77
2021/05/11 11:03:04;;;;;;;6.30;5.40;;;18.20;99.90;;;;;;5011038;28;20490;-77
2021/05/11 11:06:02;;;;;;;6.60;5.37;;;18.20;99.90;;;;;;5013696;28;20518;-76
2021/05/11 11:08:37;;;;;;;5.33;4.87;;;18.20;99.90;;;;;;5001480;28;20464;-77
2021/05/11 11:11:13;;;;;;;5.90;5.27;;;18.20;99.90;;;;;;5006446;28;20431;-77
2021/05/11 11:13:41;;;;;;;5.87;5.37;;;18.10;99.90;;;;;;5009510;28;20928;-77
2021/05/11 11:16:08;;;;;;;5.90;5.40;;;18.20;99.90;;;;;;5009266;28;20531;-77
2021/05/11 11:18:34;;;;;;;6.67;6.07;;;18.20;99.90;;;;;;4991533;28;20609;-77
2021/05/11 11:21:21;;;;;;;6.23;5.70;;;18.10;99.90;;;;;;4992455;28;20465;-77
2021/05/11 11:23:57;;;;;;;7.00;5.30;;;17.90;99.90;;;;;;5008387;28;20459;-76
2021/05/11 11:26:32;;;;;;;5.67;4.33;;;17.90;99.90;;;;;;5015041;28;20512;-79
2021/05/11 11:29:02;;;;;;;4.50;4.10;;;17.80;99.90;;;;;;4999599;28;20468;-79
2021/05/11 11:31:33;;;;;;;5.63;4.40;;;17.60;99.90;;;;;;5011381;28;20440;-76
2021/05/11 11:34:28;;;;;;;3.90;3.60;;;17.50;99.90;;;;;;5011645;28;20454;-76
2021/05/11 11:36:59;;;;;;;5.00;4.50;;;17.40;99.90;;;;;;4995257;28;20856;-77
2021/05/11 11:39:36;;;;;;;5.87;3.87;;;17.40;99.90;;;;;;5010334;28;20467;-77
2021/05/11 11:42:06;;;;;;;5.23;3.60;;;17.40;99.90;;;;;;5012146;28;20474;-76
2021/05/11 11:44:38;;;;;;;4.07;3.63;;;17.40;99.90;;;;;;5014828;28;20437;-76
2021/05/11 11:47:05;;;;;;;3.80;3.50;;;17.50;99.90;;;;;;4998389;28;20879;-76
2021/05/11 11:49:38;;;;;;;5.20;3.90;;;17.50;99.90;;;;;;5012063;28;20477;-76
2021/05/11 11:52:13;;;;;;;4.13;3.60;;;17.50;99.90;;;;;;5031589;28;20495;-76
2021/05/11 11:54:58;;;;;;;4.87;4.47;;;17.70;99.90;;;;;;5014367;28;20421;-77
2021/05/11 12:00:28;;;;;;;5.60;4.10;;;17.80;99.90;;;;;;5007839;28;20445;-76
2021/05/11 12:02:56;;;;;;;5.63;4.37;;;17.70;99.90;;;;;;5005863;28;20425;-76
2021/05/11 12:05:29;;;;;;;4.60;4.10;;;17.80;99.90;;;;;;5013243;28;20423;-77
2021/05/11 12:10:44;;;;;;;4.40;4.00;;;17.80;99.90;;;;;;5030103;28;20457;-77
2021/05/11 12:13:13;;;;;;;6.03;4.77;;;17.80;99.90;;;;;;5005917;28;20436;-77
2021/05/11 12:15:40;;;;;;;8.27;5.00;;;17.80;99.90;;;;;;4981722;28;20513;-76
2021/05/11 12:18:17;;;;;;;5.30;4.70;;;17.80;99.90;;;;;;5031483;28;20438;-79
2021/05/11 12:20:44;;;;;;;5.77;5.00;;;17.70;99.90;;;;;;4993787;28;20493;-76
2021/05/11 12:23:22;;;;;;;4.57;4.10;;;17.60;99.90;;;;;;5009784;28;20441;-77
2021/05/11 12:25:58;;;;;;;5.90;4.50;;;17.50;99.90;;;;;;5030552;28;20434;-76
2021/05/11 12:28:38;;;;;;;8.33;6.90;;;17.50;99.90;;;;;;4998200;28;20972;-76
2021/05/11 12:31:07;;;;;;;9.93;8.93;;;17.40;99.90;;;;;;5030215;28;20816;-79
2021/05/11 12:33:34;;;;;;;10.80;9.43;;;17.40;99.90;;;;;;5008047;28;21368;-76
2021/05/11 12:36:03;;;;;;;9.50;8.60;;;17.20;99.90;;;;;;5032255;28;20515;-79
2021/05/11 12:38:31;;;;;;;15.40;11.27;;;17.10;99.90;;;;;;5013448;28;20441;-76
2021/05/11 12:41:02;;;;;;;14.93;10.50;;;16.90;99.90;;;;;;5008497;28;20453;-76
2021/05/11 12:43:49;;;;;;;14.03;9.73;;;16.60;99.90;;;;;;4995677;28;20482;-77
2021/05/11 12:46:30;;;;;;;12.53;11.13;;;16.50;99.90;;;;;;5029407;28;20469;-77
2021/05/11 12:49:22;;;;;;;12.27;10.73;;;16.40;99.90;;;;;;5032003;28;20452;-76
2021/05/11 12:51:56;;;;;;;15.63;11.83;;;16.20;99.90;;;;;;5008043;28;20555;-77
2021/05/11 12:54:42;;;;;;;15.70;13.13;;;16.10;99.90;;;;;;5013451;28;20455;-79
2021/05/11 12:57:24;;;;;;;17.60;14.73;;;16.10;99.90;;;;;;4996472;28;21040;-76
2021/05/11 13:16:53;;;;;;;14.30;12.80;;;16.00;99.90;;;;;;5011670;28;20507;-76
2021/05/11 13:25:13;;;;;;;14.03;11.63;;;16.00;99.90;;;;;;4996582;28;20845;-76
2021/05/11 13:28:04;;;;;;;17.63;11.40;;;15.90;99.90;;;;;;4996723;28;20463;-76
2021/05/11 13:35:29;;;;;;;15.13;12.13;;;15.90;99.90;;;;;;5030523;28;20490;-77
2021/05/11 13:37:55;;;;;;;21.00;13.67;;;16.00;99.90;;;;;;5004306;28;20457;-77
2021/05/11 13:40:23;;;;;;;24.10;13.83;;;16.00;99.90;;;;;;5029688;28;20451;-76
2021/05/11 13:42:52;;;;;;;20.10;14.40;;;16.10;99.90;;;;;;5009228;28;20461;-76
2021/05/11 13:45:20;;;;;;;29.00;14.57;;;16.10;99.90;;;;;;5008110;28;20979;-75
2021/05/11 13:47:59;;;;;;;25.67;14.60;;;16.00;99.90;;;;;;5008055;28;20571;-76
2021/05/11 13:51:01;;;;;;;27.40;14.03;;;16.00;99.90;;;;;;5007535;28;21438;-77
2021/05/11 13:53:20;;;;;;;27.90;18.10;;;16.00;99.90;;;;;;4999971;28;21188;-77
2021/05/11 14:03:43;;;;;;;29.37;26.17;;;16.00;99.90;;;;;;5008879;28;20528;-77
2021/05/11 14:06:09;;;;;;;24.87;21.63;;;15.90;99.90;;;;;;5007822;28;20470;-77
2021/05/11 14:08:37;;;;;;;16.50;14.30;;;16.00;99.90;;;;;;5009899;28;20436;-76
2021/05/11 14:11:05;;;;;;;13.53;11.90;;;16.00;99.90;;;;;;5008439;28;20535;-77
2021/05/11 14:13:32;;;;;;;14.47;11.40;;;16.10;99.90;;;;;;5007169;28;20455;-77
2021/05/11 14:16:00;;;;;;;13.70;12.30;;;16.30;99.90;;;;;;4983506;28;20441;-78
2021/05/11 14:18:26;;;;;;;12.23;10.70;;;16.50;99.90;;;;;;5007971;28;20479;-76
2021/05/11 14:20:53;;;;;;;11.13;9.73;;;16.60;99.90;;;;;;5009623;28;20455;-76
2021/05/11 14:23:19;;;;;;;12.70;10.90;;;16.60;99.90;;;;;;5006752;28;20433;-77
2021/05/11 14:25:45;;;;;;;14.80;10.47;;;16.80;99.90;;;;;;4991713;28;20445;-76
2021/05/11 14:28:11;;;;;;;15.83;10.20;;;16.80;99.90;;;;;;5007629;28;20473;-77
2021/05/11 14:30:37;;;;;;;11.57;9.40;;;16.80;99.90;;;;;;5009407;28;20475;-76
2021/05/11 14:33:04;;;;;;;10.70;9.50;;;16.80;99.90;;;;;;5008184;28;20875;-77
2021/05/11 14:35:30;;;;;;;11.07;9.40;;;16.80;99.90;;;;;;5009755;28;20468;-76
2021/05/11 14:37:57;;;;;;;12.10;10.43;;;16.70;99.90;;;;;;5009609;28;20439;-76
2021/05/11 14:40:25;;;;;;;13.47;9.53;;;16.60;99.90;;;;;;4992276;28;20946;-76
2021/05/11 14:42:53;;;;;;;13.50;11.13;;;16.50;99.90;;;;;;5015192;28;20581;-76
2021/05/11 14:45:21;;;;;;;13.23;9.87;;;16.40;99.90;;;;;;5029120;28;20448;-77
2021/05/11 14:47:47;;;;;;;14.03;10.40;;;16.40;99.90;;;;;;5029254;28;20500;-76
2021/05/11 14:50:18;;;;;;;16.30;10.77;;;16.30;99.90;;;;;;5010305;28;21112;-77
2021/05/11 14:52:51;;;;;;;13.60;10.57;;;16.30;99.90;;;;;;5011801;28;20474;-76
2021/05/11 14:55:19;;;;;;;12.60;11.27;;;16.30;99.90;;;;;;5031020;28;20422;-76
2021/05/11 14:57:46;;;;;;;15.60;10.87;;;16.20;99.90;;;;;;5014348;28;20438;-77
2021/05/11 15:00:13;;;;;;;14.90;10.80;;;16.30;99.90;;;;;;5015296;28;20460;-76
2021/05/11 15:02:39;;;;;;;12.07;10.80;;;16.30;99.90;;;;;;4998866;28;20444;-76
2021/05/11 15:05:09;;;;;;;13.47;11.13;;;16.40;99.90;;;;;;5032545;28;20421;-77
2021/05/11 15:07:35;;;;;;;14.07;11.33;;;16.40;99.90;;;;;;5032075;28;20468;-76
2021/05/11 15:10:01;;;;;;;17.20;10.93;;;16.40;99.90;;;;;;5014994;28;20975;-77
2021/05/11 15:12:29;;;;;;;14.43;11.43;;;16.50;99.90;;;;;;5015150;28;20428;-76
2021/05/11 15:14:58;;;;;;;15.10;10.70;;;16.50;99.90;;;;;;5015276;28;20973;-77
2021/05/11 15:19:53;;;;;;;13.40;10.03;;;16.50;99.90;;;;;;5032244;28;20537;-77
2021/05/11 15:22:20;;;;;;;13.60;11.30;;;16.50;99.90;;;;;;5032384;28;20458;-76
2021/05/11 15:24:48;;;;;;;13.77;11.27;;;16.50;99.90;;;;;;4993947;28;20476;-77
2021/05/11 15:27:18;;;;;;;14.73;11.73;;;16.50;99.90;;;;;;4997841;28;20476;-76
2021/05/11 15:29:49;;;;;;;13.30;11.80;;;16.60;99.90;;;;;;5032216;28;20870;-76
2021/05/11 15:32:56;;;;;;;16.47;12.23;;;16.70;99.90;;;;;;5014153;28;20449;-76
2021/05/11 15:35:30;;;;;;;14.23;12.70;;;16.70;99.90;;;;;;4935878;29;20437;-76
2021/05/11 15:38:00;;;;;;;13.97;12.57;;;16.60;99.90;;;;;;4941366;29;20453;-76
2021/05/11 15:40:28;;;;;;;12.80;11.47;;;16.60;99.90;;;;;;4928549;29;20468;-76
2021/05/11 15:42:58;;;;;;;18.57;13.83;;;16.60;99.90;;;;;;4943379;29;20480;-76
2021/05/11 15:45:25;;;;;;;14.90;12.33;;;16.60;99.90;;;;;;4926527;29;20894;-76
2021/05/11 15:47:52;;;;;;;14.17;12.67;;;16.60;99.90;;;;;;4927441;29;20478;-76
2021/05/11 15:50:25;;;;;;;18.93;13.20;;;16.70;99.90;;;;;;4940279;28;20467;-76
2021/05/11 15:52:55;;;;;;;14.33;12.90;;;16.70;99.90;;;;;;4940177;29;20443;-77
2021/05/11 15:55:22;;;;;;;16.37;13.07;;;16.80;99.90;;;;;;4948422;29;20687;-76
2021/05/11 15:57:52;;;;;;;14.70;11.63;;;16.80;99.90;;;;;;4945952;29;20432;-77
2021/05/11 16:00:19;;;;;;;15.67;11.87;;;16.80;99.90;;;;;;4950403;29;21130;-76
2021/05/11 16:02:45;;;;;;;13.80;11.60;;;16.80;99.90;;;;;;4924977;29;20890;-76
2021/05/11 16:05:17;;;;;;;13.90;11.00;;;16.80;99.90;;;;;;4957518;28;20580;-77
2021/05/11 16:07:44;;;;;;;12.20;10.87;;;16.90;99.90;;;;;;5012854;28;20492;-77
2021/05/11 16:10:12;;;;;;;13.80;12.10;;;16.90;99.90;;;;;;4988129;28;20511;-76
2021/05/11 16:12:39;;;;;;;15.43;11.80;;;16.90;99.90;;;;;;5025048;28;20498;-77
2021/05/11 16:15:11;;;;;;;12.60;11.30;;;16.90;99.90;;;;;;5014543;28;20424;-76
2021/05/11 16:17:40;;;;;;;14.70;11.00;;;16.80;99.90;;;;;;4994770;28;20501;-75
2021/05/11 16:20:12;;;;;;;19.57;12.37;;;16.80;99.90;;;;;;5032606;28;20550;-82
2021/05/11 16:22:42;;;;;;;21.17;13.73;;;16.80;99.90;;;;;;5014080;28;20420;-76
2021/05/11 16:25:14;;;;;;;19.10;12.67;;;16.80;99.90;;;;;;5031689;28;20551;-76
2021/05/11 16:27:42;;;;;;;18.90;13.20;;;16.80;99.90;;;;;;5012707;28;20832;-76
2021/05/11 16:30:11;;;;;;;15.80;12.10;;;16.80;99.90;;;;;;5031296;28;20463;-77
2021/05/11 16:32:40;;;;;;;14.97;12.10;;;16.80;99.90;;;;;;4992362;28;20540;-76
2021/05/11 16:35:08;;;;;;;16.70;12.03;;;16.80;99.90;;;;;;5014255;28;20441;-77
2021/05/11 16:37:40;;;;;;;16.07;11.00;;;16.80;99.90;;;;;;5030261;28;20571;-76
2021/05/11 16:40:08;;;;;;;10.87;9.70;;;16.70;99.90;;;;;;5031442;28;20447;-77
2021/05/11 16:42:35;;;;;;;12.17;9.30;;;16.70;99.90;;;;;;4993850;28;20820;-76
2021/05/11 16:45:01;;;;;;;11.67;10.47;;;16.80;99.90;;;;;;5029407;28;20485;-76
2021/05/11 16:47:28;;;;;;;12.93;10.27;;;16.70;99.90;;;;;;4996686;28;20830;-76
2021/05/11 16:49:54;;;;;;;15.80;10.30;;;16.70;99.90;;;;;;5027006;28;20799;-76
2021/05/11 16:52:25;;;;;;;13.77;10.00;;;16.60;99.90;;;;;;4996898;28;20514;-77
2021/05/11 16:54:51;;;;;;;15.83;11.07;;;16.60;99.90;;;;;;5029815;28;20795;-77
2021/05/11 16:57:18;;;;;;;15.80;10.60;;;16.50;99.90;;;;;;5013758;28;20529;-76
2021/05/11 16:59:44;;;;;;;14.07;10.90;;;16.50;99.90;;;;;;5013079;28;20972;-76
2021/05/11 17:02:10;;;;;;;12.00;9.70;;;16.50;99.90;;;;;;5012887;28;20510;-77
2021/05/11 17:04:39;;;;;;;12.67;10.27;;;16.50;99.90;;;;;;5002783;28;20428;-76
2021/05/11 17:07:08;;;;;;;10.40;9.03;;;16.40;99.90;;;;;;4997202;28;20459;-77
2021/05/11 17:09:35;;;;;;;13.00;9.97;;;16.40;99.90;;;;;;4993665;28;20455;-76
2021/05/11 17:12:01;;;;;;;12.07;9.70;;;16.40;99.90;;;;;;5010037;28;20515;-76
2021/05/11 17:14:27;;;;;;;11.50;9.77;;;16.30;99.90;;;;;;5011185;28;20431;-76